Time;durP1;ratioP1;P1;durP2;ratioP2;P2;SDS_P1;SDS_P2;PMS_P1;PMS_P2;Temp;Humidity;BMP_temperature;BMP_pressure;BME280_temperature;BME280_humidity;BME280_pressure;Samples;Min_cycle;Max_cycle;Signal;HPM_P1;HPM_P2
2022/05/06 00:01:24;;;;;;;12.40;11.23;;;18.80;99.90;;;;;;4592256;19;20017;-19
2022/05/06 00:02:55;;;;;;;12.18;11.02;;;18.80;99.90;;;;;;4592760;19;20014;-20
2022/05/06 00:04:27;;;;;;;12.75;11.48;;;18.80;99.90;;;;;;4591277;19;20010;-19
2022/05/06 00:05:58;;;;;;;12.35;11.07;;;18.70;99.90;;;;;;4590641;19;20029;-20
2022/05/06 00:07:29;;;;;;;12.38;10.88;;;18.80;99.90;;;;;;4591264;19;20017;-19
2022/05/06 00:08:59;;;;;;;12.50;11.20;;;18.80;99.90;;;;;;4592179;19;20022;-20
2022/05/06 00:10:31;;;;;;;12.35;11.13;;;18.80;99.90;;;;;;4592493;19;20044;-20
2022/05/06 00:12:02;;;;;;;11.73;10.57;;;18.80;99.90;;;;;;4592634;19;20011;-20
2022/05/06 00:13:33;;;;;;;10.95;9.93;;;18.80;99.90;;;;;;4592753;19;20017;-19
2022/05/06 00:15:06;;;;;;;12.18;10.98;;;18.80;99.90;;;;;;4591376;19;20066;-18
2022/05/06 00:16:38;;;;;;;12.68;11.30;;;18.80;99.90;;;;;;4590815;19;20022;-18
2022/05/06 00:18:09;;;;;;;12.82;11.13;;;18.80;99.90;;;;;;4592065;19;20470;-19
2022/05/06 00:19:42;;;;;;;11.93;10.73;;;18.80;99.90;;;;;;4593054;19;20014;-19
2022/05/06 00:21:13;;;;;;;11.88;10.63;;;18.80;99.90;;;;;;4590756;19;20014;-19
2022/05/06 00:22:44;;;;;;;12.02;10.85;;;18.80;99.90;;;;;;4591765;19;20349;-20
2022/05/06 00:24:15;;;;;;;11.93;10.73;;;18.80;99.90;;;;;;4591159;19;20014;-20
2022/05/06 00:25:46;;;;;;;13.10;11.80;;;18.80;99.90;;;;;;4591468;19;20018;-20
2022/05/06 00:27:17;;;;;;;12.57;11.27;;;18.80;99.90;;;;;;4592490;19;20452;-20
2022/05/06 00:28:48;;;;;;;13.18;11.82;;;18.80;99.90;;;;;;4590241;19;20456;-20
2022/05/06 00:30:20;;;;;;;13.23;11.93;;;18.80;99.90;;;;;;4591434;19;20488;-20
2022/05/06 00:31:51;;;;;;;13.82;12.40;;;18.80;99.90;;;;;;4592086;19;20015;-19
2022/05/06 00:33:24;;;;;;;14.48;12.68;;;18.80;99.90;;;;;;4590816;19;20106;-19
2022/05/06 00:34:55;;;;;;;13.98;12.48;;;18.80;99.90;;;;;;4589969;19;20025;-20
2022/05/06 00:36:26;;;;;;;13.45;12.07;;;18.80;99.90;;;;;;4592293;19;20512;-20
2022/05/06 00:37:58;;;;;;;13.45;12.02;;;18.80;99.90;;;;;;4592547;19;20085;-20
2022/05/06 00:39:28;;;;;;;;;;;18.80;99.90;;;;;;4592992;19;20074;-19
2022/05/06 00:41:00;;;;;;;12.03;10.87;;;18.80;99.90;;;;;;4592062;19;19914;-20
2022/05/06 00:42:32;;;;;;;12.52;11.23;;;18.80;99.90;;;;;;4592797;19;20441;-20
2022/05/06 00:44:07;;;;;;;12.35;11.10;;;18.80;99.90;;;;;;4591046;19;20361;-20
2022/05/06 00:45:58;;;;;;;11.82;10.73;;;18.80;99.90;;;;;;4591278;19;20022;-20
2022/05/06 00:47:29;;;;;;;11.75;10.55;;;18.80;99.90;;;;;;4591852;19;20071;-22
2022/05/06 00:49:00;;;;;;;12.32;11.02;;;18.80;99.90;;;;;;4592869;19;20010;-20
2022/05/06 00:50:32;;;;;;;12.63;11.45;;;18.80;99.90;;;;;;4590079;19;20014;-20
2022/05/06 00:52:06;;;;;;;12.15;11.02;;;18.70;99.90;;;;;;4590847;19;20010;-19
2022/05/06 00:53:38;;;;;;;12.45;11.18;;;18.80;99.90;;;;;;4590534;19;20114;-21
2022/05/06 00:55:09;;;;;;;;;;;18.80;99.90;;;;;;4591603;19;20053;-20
2022/05/06 00:56:40;;;;;;;12.48;11.18;;;18.70;99.90;;;;;;4591423;19;19922;-20
2022/05/06 00:58:11;;;;;;;11.98;10.80;;;18.70;99.90;;;;;;4591778;19;20006;-19
2022/05/06 01:01:32;;;;;;;13.00;11.65;;;18.70;99.90;;;;;;4590857;19;20006;-20
2022/05/06 01:03:03;;;;;;;12.05;10.88;;;18.70;99.90;;;;;;4592596;19;20058;-20
2022/05/06 01:04:34;;;;;;;13.52;12.13;;;18.60;99.90;;;;;;4591835;19;20038;-20
2022/05/06 01:06:13;;;;;;;12.88;11.68;;;18.60;99.90;;;;;;4589470;19;20539;-21
2022/05/06 01:07:44;;;;;;;12.38;11.18;;;18.60;99.90;;;;;;4590336;19;20014;-20
2022/05/06 01:09:16;;;;;;;11.50;10.40;;;18.60;99.90;;;;;;4591279;19;20023;-19
2022/05/06 01:10:47;;;;;;;12.32;11.13;;;18.60;99.90;;;;;;4590487;19;20007;-19
2022/05/06 01:12:19;;;;;;;13.10;11.90;;;18.60;99.90;;;;;;4590727;19;20022;-20
2022/05/06 01:13:54;;;;;;;13.68;12.32;;;18.60;99.90;;;;;;4590388;19;20010;-20
2022/05/06 01:15:26;;;;;;;12.15;10.95;;;18.50;99.90;;;;;;4590560;19;20017;-20
2022/05/06 01:16:57;;;;;;;12.10;10.90;;;18.50;99.90;;;;;;4590435;19;20021;-19
2022/05/06 01:18:29;;;;;;;10.60;9.60;;;18.40;99.90;;;;;;4591515;19;20091;-19
2022/05/06 01:20:00;;;;;;;12.77;11.50;;;18.40;99.90;;;;;;4591589;19;20041;-19
2022/05/06 01:21:36;;;;;;;12.52;11.27;;;18.40;99.90;;;;;;4591186;19;20019;-19
2022/05/06 01:23:08;;;;;;;11.75;10.57;;;18.50;99.90;;;;;;4590318;19;20014;-19
2022/05/06 01:24:39;;;;;;;12.00;10.80;;;18.40;99.90;;;;;;4591338;19;20078;-20
2022/05/06 01:26:10;;;;;;;12.45;11.25;;;18.50;99.90;;;;;;4589699;19;20003;-20
2022/05/06 01:27:52;;;;;;;11.68;10.57;;;18.50;99.90;;;;;;4590582;19;20330;-19
2022/05/06 01:29:23;;;;;;;11.02;9.93;;;18.50;99.90;;;;;;4589059;19;20014;-20
2022/05/06 01:31:03;;;;;;;11.68;10.55;;;18.50;99.90;;;;;;4591210;19;20070;-19
2022/05/06 01:32:34;;;;;;;11.00;9.90;;;18.50;99.90;;;;;;4590857;19;20321;-20
2022/05/06 01:34:05;;;;;;;11.30;10.18;;;18.50;99.90;;;;;;4589760;19;20011;-20
2022/05/06 01:35:40;;;;;;;10.27;9.38;;;18.50;99.90;;;;;;4590531;19;20043;-20
2022/05/06 01:37:11;;;;;;;11.07;9.98;;;18.50;99.90;;;;;;4591150;19;20073;-19
2022/05/06 01:38:50;;;;;;;10.52;9.43;;;18.50;99.90;;;;;;4590720;19;20003;-20
2022/05/06 01:40:21;;;;;;;11.18;10.13;;;18.50;99.90;;;;;;4589777;19;20018;-20
2022/05/06 01:41:53;;;;;;;11.30;10.20;;;18.50;99.90;;;;;;4589857;19;20082;-21
2022/05/06 01:43:24;;;;;;;11.02;9.93;;;18.40;99.90;;;;;;4590958;19;20081;-20
2022/05/06 01:44:55;;;;;;;11.35;10.25;;;18.40;99.90;;;;;;4591265;19;20011;-20
2022/05/06 01:46:27;;;;;;;10.73;9.73;;;18.40;99.90;;;;;;4588529;19;20027;-20
2022/05/06 01:47:58;;;;;;;11.60;10.50;;;18.40;99.90;;;;;;4589672;19;20014;-20
2022/05/06 01:49:30;;;;;;;10.88;9.77;;;18.40;99.90;;;;;;4589977;19;20050;-20
2022/05/06 01:51:01;;;;;;;12.60;11.40;;;18.30;99.90;;;;;;4590389;19;20012;-18
2022/05/06 01:52:32;;;;;;;12.20;11.10;;;18.30;99.90;;;;;;4590513;19;20018;-19
2022/05/06 01:54:04;;;;;;;12.32;11.20;;;18.30;99.90;;;;;;4589795;19;20074;-20
2022/05/06 01:55:35;;;;;;;11.52;10.43;;;18.30;99.90;;;;;;4590571;19;20023;-19
2022/05/06 01:57:06;;;;;;;12.43;11.23;;;18.30;99.90;;;;;;4590823;19;20014;-19
2022/05/06 01:58:37;;;;;;;11.90;10.80;;;18.30;99.90;;;;;;4590789;19;20076;-18
2022/05/06 02:00:08;;;;;;;11.63;10.52;;;18.30;99.90;;;;;;4591346;19;20025;-19
2022/05/06 02:01:40;;;;;;;11.50;10.43;;;18.30;99.90;;;;;;4591605;19;20006;-19
2022/05/06 02:05:16;;;;;;;10.65;9.65;;;18.30;99.90;;;;;;4590321;19;20015;-20
2022/05/06 02:05:17;;;;;;;10.80;9.80;;;18.30;99.90;;;;;;4590644;19;20369;-20
2022/05/06 02:06:48;;;;;;;9.85;8.95;;;18.40;99.90;;;;;;4590793;19;20078;-20
2022/05/06 02:08:19;;;;;;;11.07;10.05;;;18.30;99.90;;;;;;4590857;19;20018;-19
2022/05/06 02:09:50;;;;;;;10.85;9.82;;;18.40;99.90;;;;;;4590734;19;20066;-20
2022/05/06 02:11:21;;;;;;;11.48;10.38;;;18.40;99.90;;;;;;4590476;19;20100;-20
2022/05/06 02:12:52;;;;;;;11.15;10.05;;;18.30;99.90;;;;;;4590788;19;20081;-20
2022/05/06 02:14:23;;;;;;;11.18;10.07;;;18.40;99.90;;;;;;4590260;19;20018;-19
2022/05/06 02:15:54;;;;;;;11.10;10.00;;;18.40;99.90;;;;;;4590798;19;20484;-19
2022/05/06 02:17:25;;;;;;;11.10;10.07;;;18.40;99.90;;;;;;4588384;19;20013;-19
2022/05/06 02:18:56;;;;;;;11.85;10.75;;;18.40;99.90;;;;;;4590133;19;20094;-19
2022/05/06 02:20:27;;;;;;;11.05;10.05;;;18.30;99.90;;;;;;4591090;19;20007;-21
2022/05/06 02:21:58;;;;;;;10.65;9.63;;;18.20;99.90;;;;;;4590093;19;20014;-20
2022/05/06 02:23:29;;;;;;;11.95;10.80;;;18.20;99.90;;;;;;4590412;19;20002;-20
2022/05/06 02:25:00;;;;;;;11.35;10.25;;;18.20;99.90;;;;;;4590022;19;20364;-20
2022/05/06 02:26:31;;;;;;;11.60;10.45;;;18.20;99.90;;;;;;4588693;19;20002;-20
2022/05/06 02:28:02;;;;;;;11.32;10.23;;;18.20;99.90;;;;;;4589544;19;20007;-20
2022/05/06 02:29:33;;;;;;;11.98;10.85;;;18.30;99.90;;;;;;4589338;19;20010;-20
2022/05/06 02:33:12;;;;;;;10.50;9.50;;;18.30;99.90;;;;;;4590295;19;20014;-20
2022/05/06 02:34:43;;;;;;;10.57;9.57;;;18.20;99.90;;;;;;4590716;19;20369;-20
2022/05/06 02:36:14;;;;;;;10.30;9.25;;;18.10;99.90;;;;;;4589820;19;20018;-20
2022/05/06 02:37:45;;;;;;;10.75;9.75;;;18.10;99.90;;;;;;4590312;19;20476;-19
2022/05/06 02:39:16;;;;;;;10.60;9.60;;;18.10;99.90;;;;;;4590574;19;20002;-19
2022/05/06 02:40:48;;;;;;;10.50;9.55;;;18.10;99.90;;;;;;4589727;19;20015;-20
2022/05/06 02:42:19;;;;;;;10.57;9.57;;;18.20;99.90;;;;;;4587415;19;20006;-20
2022/05/06 02:43:50;;;;;;;10.70;9.60;;;18.10;99.90;;;;;;4589714;19;20007;-19
2022/05/06 02:45:21;;;;;;;11.02;10.00;;;18.00;99.90;;;;;;4589885;19;20032;-21
2022/05/06 02:46:52;;;;;;;11.63;10.43;;;18.00;99.90;;;;;;4589836;19;20023;-22
2022/05/06 02:48:23;;;;;;;10.73;9.65;;;18.00;99.90;;;;;;4588919;19;20078;-19
2022/05/06 02:49:54;;;;;;;11.73;10.52;;;18.10;99.90;;;;;;4589482;19;20030;-19
2022/05/06 02:51:25;;;;;;;11.68;10.30;;;18.10;99.90;;;;;;4590367;19;20053;-20
2022/05/06 02:52:56;;;;;;;10.60;9.60;;;18.10;99.90;;;;;;4589553;19;20345;-20
2022/05/06 02:54:29;;;;;;;10.25;9.25;;;18.10;99.90;;;;;;4589850;19;20027;-20
2022/05/06 02:56:00;;;;;;;10.32;9.23;;;18.10;99.90;;;;;;4590236;19;20015;-19
2022/05/06 02:57:31;;;;;;;10.00;9.00;;;18.10;99.90;;;;;;4591797;19;20013;-20
2022/05/06 02:59:02;;;;;;;9.82;8.90;;;18.10;99.90;;;;;;4591902;19;20012;-20
2022/05/06 03:00:34;;;;;;;10.27;9.25;;;18.10;99.90;;;;;;4593703;19;20014;-20
2022/05/06 03:02:05;;;;;;;10.35;9.35;;;18.10;99.90;;;;;;4595159;19;20010;-20
2022/05/06 03:03:36;;;;;;;10.75;9.73;;;18.10;99.90;;;;;;4593472;19;20010;-20
2022/05/06 03:05:08;;;;;;;10.45;9.45;;;18.10;99.90;;;;;;4593955;19;20015;-19
2022/05/06 03:06:42;;;;;;;10.23;9.23;;;18.10;99.90;;;;;;4592458;19;20021;-19
2022/05/06 03:08:13;;;;;;;9.27;8.35;;;18.10;99.90;;;;;;4595006;19;20013;-19
2022/05/06 03:09:44;;;;;;;10.20;9.20;;;18.10;99.90;;;;;;4593987;19;20018;-20
2022/05/06 03:11:15;;;;;;;10.55;9.45;;;18.10;99.90;;;;;;4594078;19;20017;-20
2022/05/06 03:12:49;;;;;;;10.23;9.20;;;18.20;99.90;;;;;;4593339;19;20097;-19
2022/05/06 03:14:20;;;;;;;10.75;9.65;;;18.20;99.90;;;;;;4594181;19;20017;-20
2022/05/06 03:15:52;;;;;;;10.40;9.38;;;18.20;99.90;;;;;;4593977;19;20056;-20
2022/05/06 03:17:23;;;;;;;10.00;9.05;;;18.20;99.90;;;;;;4591446;19;20014;-19
2022/05/06 03:18:54;;;;;;;11.10;9.95;;;18.20;99.90;;;;;;4593688;19;20480;-20
2022/05/06 03:20:25;;;;;;;10.02;9.10;;;18.20;99.90;;;;;;4593734;19;20011;-19
2022/05/06 03:21:56;;;;;;;10.70;9.57;;;18.20;99.90;;;;;;4593600;19;20015;-20
2022/05/06 03:23:27;;;;;;;10.05;8.95;;;18.20;99.90;;;;;;4593667;19;20014;-19
2022/05/06 03:24:58;;;;;;;9.98;8.98;;;18.20;99.90;;;;;;4594662;19;20456;-19
2022/05/06 03:26:29;;;;;;;9.75;8.63;;;18.20;99.90;;;;;;4592047;19;20017;-19
2022/05/06 03:28:01;;;;;;;10.07;9.07;;;18.30;99.90;;;;;;4593822;19;20454;-21
2022/05/06 03:29:33;;;;;;;10.00;9.00;;;18.30;99.90;;;;;;4593942;19;20359;-19
2022/05/06 03:31:04;;;;;;;;;;;18.30;99.90;;;;;;4595790;19;20018;-20
2022/05/06 03:32:35;;;;;;;9.35;8.43;;;18.30;99.90;;;;;;4592606;19;19948;-20
2022/05/06 03:34:06;;;;;;;;;;;18.30;99.90;;;;;;4594331;19;20011;-20
2022/05/06 03:35:37;;;;;;;9.30;8.40;;;18.20;99.90;;;;;;4592369;19;19918;-20
2022/05/06 03:37:09;;;;;;;9.55;8.65;;;18.20;99.90;;;;;;4593487;19;20022;-21
2022/05/06 03:38:39;;;;;;;9.43;8.48;;;18.30;99.90;;;;;;4592352;19;20014;-21
2022/05/06 03:40:11;;;;;;;9.10;8.20;;;18.30;99.90;;;;;;4590739;19;20010;-19
2022/05/06 03:41:42;;;;;;;9.02;8.13;;;18.20;99.90;;;;;;4593228;19;20007;-19
2022/05/06 03:43:13;;;;;;;8.57;7.60;;;18.20;99.90;;;;;;4593400;19;20098;-20
2022/05/06 03:44:44;;;;;;;9.98;7.45;;;18.20;99.90;;;;;;4593876;19;20007;-20
2022/05/06 03:46:15;;;;;;;9.00;8.10;;;18.20;99.90;;;;;;4592600;19;20014;-18
2022/05/06 03:47:46;;;;;;;9.75;8.13;;;18.20;99.90;;;;;;4593840;19;20018;-20
2022/05/06 03:49:17;;;;;;;10.05;8.80;;;18.20;99.90;;;;;;4593116;19;20018;-19
2022/05/06 03:52:37;;;;;;;10.52;8.38;;;18.20;99.90;;;;;;4593548;19;20039;-19
2022/05/06 03:54:08;;;;;;;8.52;7.63;;;18.30;99.90;;;;;;4593298;19;20007;-20
2022/05/06 03:55:40;;;;;;;9.18;8.20;;;18.30;99.90;;;;;;4593124;19;20496;-20
2022/05/06 03:57:10;;;;;;;9.65;8.65;;;18.30;99.90;;;;;;4593176;19;20034;-19
2022/05/06 03:58:42;;;;;;;9.80;8.60;;;18.30;99.90;;;;;;4593507;19;20023;-20
2022/05/06 04:00:14;;;;;;;9.98;8.35;;;18.30;99.90;;;;;;4593363;19;20349;-20
2022/05/06 04:01:45;;;;;;;8.25;7.45;;;18.30;99.90;;;;;;4591728;19;20031;-19
2022/05/06 04:03:17;;;;;;;8.10;7.30;;;18.30;99.90;;;;;;4592546;19;20469;-20
2022/05/06 04:04:48;;;;;;;8.95;8.10;;;18.40;99.90;;;;;;4593418;19;20021;-20
2022/05/06 04:06:19;;;;;;;9.05;7.38;;;18.30;99.90;;;;;;4590722;19;20082;-20
2022/05/06 04:07:50;;;;;;;9.00;7.60;;;18.40;99.90;;;;;;4592505;19;20034;-20
2022/05/06 04:09:21;;;;;;;8.63;7.68;;;18.40;99.90;;;;;;4590202;19;20011;-20
2022/05/06 04:10:52;;;;;;;8.45;7.03;;;18.40;99.90;;;;;;4593426;19;20014;-20
2022/05/06 04:12:23;;;;;;;9.35;8.13;;;18.40;99.90;;;;;;4592821;19;20028;-19
2022/05/06 04:13:54;;;;;;;8.38;7.57;;;18.40;99.90;;;;;;4593050;19;20011;-21
2022/05/06 04:15:25;;;;;;;8.05;7.00;;;18.30;99.90;;;;;;4593284;19;20353;-19
2022/05/06 04:16:56;;;;;;;8.43;7.53;;;18.30;99.90;;;;;;4592009;19;20033;-19
2022/05/06 04:18:27;;;;;;;9.73;8.82;;;18.40;99.90;;;;;;4592760;19;20395;-19
2022/05/06 04:23:38;;;;;;;10.40;8.32;;;18.40;99.90;;;;;;4593031;19;20005;-20
2022/05/06 04:25:09;;;;;;;9.95;8.27;;;18.40;99.90;;;;;;4593446;19;20078;-20
2022/05/06 04:26:40;;;;;;;9.50;8.50;;;18.40;99.90;;;;;;4591209;19;20010;-19
2022/05/06 04:28:11;;;;;;;10.38;8.57;;;18.40;99.90;;;;;;4592609;19;20487;-20
2022/05/06 04:29:41;;;;;;;9.55;8.57;;;18.40;99.90;;;;;;4593135;19;20011;-21
2022/05/06 04:31:13;;;;;;;8.93;7.55;;;18.40;99.90;;;;;;4592261;19;20537;-21
2022/05/06 04:32:44;;;;;;;9.25;8.35;;;18.40;99.90;;;;;;4592052;19;20017;-21
2022/05/06 04:34:14;;;;;;;9.52;7.80;;;18.40;99.90;;;;;;4592947;19;20614;-19
2022/05/06 04:35:46;;;;;;;9.55;8.30;;;18.40;99.90;;;;;;4592101;19;20007;-20
2022/05/06 04:37:19;;;;;;;9.18;8.27;;;18.40;99.90;;;;;;4592101;19;20010;-19
2022/05/06 04:38:50;;;;;;;8.98;8.07;;;18.40;99.90;;;;;;4591234;19;20018;-19
2022/05/06 04:40:20;;;;;;;8.80;8.00;;;18.40;99.90;;;;;;4591176;19;20018;-20
2022/05/06 04:41:51;;;;;;;9.38;8.05;;;18.40;99.90;;;;;;4592475;19;20014;-19
2022/05/06 04:43:23;;;;;;;8.38;7.00;;;18.40;99.90;;;;;;4592090;19;20472;-19
2022/05/06 04:44:54;;;;;;;8.88;7.95;;;18.40;99.90;;;;;;4592127;19;20353;-19
2022/05/06 04:46:25;;;;;;;8.45;7.40;;;18.40;99.90;;;;;;4591549;19;20384;-21
2022/05/06 04:47:57;;;;;;;9.02;8.13;;;18.40;99.90;;;;;;4591060;19;20054;-21
2022/05/06 04:49:28;;;;;;;9.65;7.50;;;18.40;99.90;;;;;;4591952;19;20010;-20
2022/05/06 04:50:59;;;;;;;9.27;7.97;;;18.40;99.90;;;;;;4591792;19;20011;-20
2022/05/06 04:52:30;;;;;;;8.32;7.43;;;18.40;99.90;;;;;;4591602;19;20009;-19
2022/05/06 04:54:01;;;;;;;8.60;7.70;;;18.40;99.90;;;;;;4590762;19;20097;-20
2022/05/06 04:55:33;;;;;;;8.35;7.50;;;18.40;99.90;;;;;;4591818;19;20011;-19
2022/05/06 04:57:05;;;;;;;8.13;7.13;;;18.40;99.90;;;;;;4592267;19;20076;-20
2022/05/06 04:58:35;;;;;;;8.68;7.75;;;18.50;99.90;;;;;;4590820;19;20011;-20
2022/05/06 05:00:07;;;;;;;9.20;8.25;;;18.40;99.90;;;;;;4590816;19;20018;-21
2022/05/06 05:01:39;;;;;;;;;;;18.40;99.80;;;;;;4591691;19;20015;-20
2022/05/06 05:03:10;;;;;;;7.32;6.55;;;18.40;99.80;;;;;;4591408;19;19925;-19
2022/05/06 05:04:41;;;;;;;8.85;7.95;;;18.40;99.80;;;;;;4591998;19;20006;-19
2022/05/06 05:06:13;;;;;;;8.77;7.45;;;18.40;99.80;;;;;;4590787;19;20480;-20
2022/05/06 05:07:44;;;;;;;;;;;18.50;99.90;;;;;;4593243;19;20010;-19
2022/05/06 05:09:15;;;;;;;8.05;7.25;;;18.40;99.80;;;;;;4593323;19;19933;-19
2022/05/06 05:10:46;;;;;;;10.65;8.38;;;18.40;99.70;;;;;;4592367;19;20013;-20
2022/05/06 05:12:17;;;;;;;9.05;7.60;;;18.40;99.70;;;;;;4591011;19;20030;-20
2022/05/06 05:13:49;;;;;;;8.88;7.05;;;18.40;99.80;;;;;;4592618;19;20069;-20
2022/05/06 05:15:20;;;;;;;8.52;7.57;;;18.50;99.80;;;;;;4593979;19;20464;-19
2022/05/06 05:16:51;;;;;;;8.73;7.22;;;18.40;99.80;;;;;;4592641;19;20078;-19
2022/05/06 05:18:23;;;;;;;9.32;7.68;;;18.40;99.80;;;;;;4591772;19;20006;-19
2022/05/06 05:19:54;;;;;;;8.25;7.43;;;18.40;99.90;;;;;;4590986;19;20006;-20
2022/05/06 05:21:25;;;;;;;8.00;7.22;;;18.40;99.90;;;;;;4593427;19;20011;-20
2022/05/06 05:22:59;;;;;;;10.40;7.43;;;18.40;99.90;;;;;;4590270;19;20014;-20
2022/05/06 05:24:33;;;;;;;8.55;7.60;;;18.40;99.90;;;;;;4591614;19;20011;-21
2022/05/06 05:26:04;;;;;;;8.93;7.78;;;18.40;99.80;;;;;;4590917;19;20010;-20
2022/05/06 05:27:38;;;;;;;9.93;7.82;;;18.40;99.90;;;;;;4593363;19;20043;-20
2022/05/06 05:29:09;;;;;;;9.27;7.60;;;18.40;99.90;;;;;;4591370;19;20010;-19
2022/05/06 05:30:40;;;;;;;9.60;8.30;;;18.40;99.90;;;;;;4593131;19;20015;-20
2022/05/06 05:32:11;;;;;;;8.93;7.88;;;18.50;99.90;;;;;;4592119;19;20469;-20
2022/05/06 05:33:42;;;;;;;9.82;8.82;;;18.40;99.90;;;;;;4591467;19;20022;-19
2022/05/06 05:35:13;;;;;;;10.50;7.13;;;18.40;99.90;;;;;;4591107;19;20006;-19
2022/05/06 05:36:45;;;;;;;9.50;7.68;;;18.40;99.90;;;;;;4591446;19;20015;-20
2022/05/06 05:38:16;;;;;;;8.13;7.32;;;18.40;99.90;;;;;;4592273;19;20165;-19
2022/05/06 05:39:47;;;;;;;8.10;7.30;;;18.40;99.90;;;;;;4591309;19;20013;-19
2022/05/06 05:41:18;;;;;;;8.20;7.40;;;18.50;99.90;;;;;;4591393;19;20010;-19
2022/05/06 05:42:49;;;;;;;8.30;7.45;;;18.50;99.90;;;;;;4591642;19;20007;-20
2022/05/06 05:48:32;;;;;;;8.95;7.65;;;18.70;99.60;;;;;;4590158;19;20362;-19
2022/05/06 05:49:56;;;;;;;9.05;8.15;;;18.70;99.60;;;;;;4590508;19;20520;-19
2022/05/06 05:51:27;;;;;;;10.10;8.20;;;18.70;99.60;;;;;;4590874;19;20052;-19
2022/05/06 05:52:58;;;;;;;7.65;6.80;;;18.70;99.50;;;;;;4590657;19;20006;-19
2022/05/06 05:54:29;;;;;;;8.38;7.22;;;18.80;99.50;;;;;;4592459;19;20014;-20
2022/05/06 05:56:00;;;;;;;8.23;7.40;;;19.00;99.20;;;;;;4593535;19;20018;-19
2022/05/06 05:57:31;;;;;;;;;;;19.10;99.00;;;;;;4594019;19;20444;-20
2022/05/06 05:59:03;;;;;;;;;;;19.30;98.60;;;;;;4593002;19;20238;-21
2022/05/06 06:00:34;;;;;;;;;;;19.40;98.40;;;;;;4593455;19;19915;-19
2022/05/06 06:02:06;;;;;;;;;;;19.60;98.20;;;;;;4593441;19;19915;-19
2022/05/06 06:03:37;;;;;;;;;;;19.60;97.90;;;;;;4593710;19;20333;-19
2022/05/06 06:05:08;;;;;;;;;;;19.80;97.80;;;;;;4591942;19;20283;-19
2022/05/06 06:06:39;;;;;;;;;;;19.80;97.50;;;;;;4590858;19;19915;-19
2022/05/06 06:08:10;;;;;;;;;;;19.90;97.40;;;;;;4591993;19;20349;-20
2022/05/06 06:09:42;;;;;;;;;;;20.00;97.30;;;;;;4592556;19;19914;-19
2022/05/06 06:11:13;;;;;;;;;;;20.10;97.10;;;;;;4591560;19;20325;-20
2022/05/06 06:12:44;;;;;;;;;;;20.20;96.90;;;;;;4592096;19;19906;-20
2022/05/06 06:14:16;;;;;;;;;;;20.30;96.80;;;;;;4592217;19;19915;-20
2022/05/06 06:15:47;;;;;;;;;;;20.30;96.60;;;;;;4593598;19;20323;-20
2022/05/06 06:17:17;;;;;;;;;;;20.40;96.40;;;;;;4590558;19;19915;-21
2022/05/06 06:18:48;;;;;;;10.70;9.70;;;20.50;96.40;;;;;;4590458;19;19918;-20
2022/05/06 06:20:21;;;;;;;10.90;9.90;;;19.00;97.40;;;;;;4591355;19;20002;-20
2022/05/06 06:21:52;;;;;;;;;;;17.40;99.90;;;;;;4591591;19;20352;-19
2022/05/06 06:23:23;;;;;;;;;;;16.30;99.90;;;;;;4591407;19;19918;-19
2022/05/06 06:24:54;;;;;;;;;;;15.60;99.90;;;;;;4592533;19;19914;-20
2022/05/06 06:26:25;;;;;;;;;;;15.30;99.90;;;;;;4590502;19;19919;-20
2022/05/06 06:27:56;;;;;;;;;;;15.00;99.90;;;;;;4591067;19;19918;-19
2022/05/06 06:29:29;;;;;;;10.98;9.93;;;14.90;99.90;;;;;;4589859;19;20559;-19
2022/05/06 06:31:00;;;;;;;;;;;14.80;99.90;;;;;;4593303;19;20037;-19
2022/05/06 06:32:31;;;;;;;;;;;14.70;99.90;;;;;;4591694;19;19919;-20
2022/05/06 06:34:02;;;;;;;;;;;14.70;99.90;;;;;;4591723;19;19974;-19
2022/05/06 06:35:33;;;;;;;;;;;14.60;99.90;;;;;;4592678;19;19918;-19
2022/05/06 06:37:04;;;;;;;;;;;14.60;99.90;;;;;;4593042;19;19911;-19
2022/05/06 06:38:35;;;;;;;;;;;14.60;99.90;;;;;;4593519;19;19927;-19
2022/05/06 06:40:06;;;;;;;;;;;14.60;99.90;;;;;;4592596;19;19925;-20
2022/05/06 06:41:37;;;;;;;;;;;14.50;99.90;;;;;;4591040;19;19915;-18
2022/05/06 06:43:08;;;;;;;;;;;14.50;99.90;;;;;;4591046;19;20333;-18
2022/05/06 06:44:39;;;;;;;;;;;14.50;99.90;;;;;;4591442;19;19918;-17
2022/05/06 06:46:10;;;;;;;;;;;14.60;99.90;;;;;;4590399;19;19919;-19
2022/05/06 06:47:43;;;;;;;;;;;14.60;99.90;;;;;;4590017;19;19974;-18
2022/05/06 06:49:13;;;;;;;;;;;14.60;99.90;;;;;;4592762;19;19921;-20
2022/05/06 06:50:45;;;;;;;;;;;14.60;99.90;;;;;;4593110;19;19918;-20
2022/05/06 06:52:15;;;;;;;;;;;14.60;99.90;;;;;;4592290;19;20326;-19
2022/05/06 06:53:48;;;;;;;;;;;14.60;99.90;;;;;;4590308;19;20229;-19
2022/05/06 06:55:19;;;;;;;;;;;14.60;99.90;;;;;;4592773;19;19914;-20
2022/05/06 06:56:50;;;;;;;;;;;14.60;99.90;;;;;;4591648;19;19982;-19
2022/05/06 06:58:21;;;;;;;;;;;14.60;99.90;;;;;;4592085;19;19915;-18
2022/05/06 06:59:52;;;;;;;;;;;14.60;99.90;;;;;;4590392;19;20333;-18
2022/05/06 07:01:23;;;;;;;;;;;14.60;99.90;;;;;;4590893;19;19956;-19
2022/05/06 07:02:56;;;;;;;;;;;14.60;99.90;;;;;;4590571;19;20328;-18
2022/05/06 07:04:26;;;;;;;;;;;14.60;99.90;;;;;;4590645;19;20266;-19
2022/05/06 07:13:17;;;;;;;;;;;14.50;99.90;;;;;;4590311;19;19915;-20
2022/05/06 07:14:48;;;;;;;;;;;14.50;99.90;;;;;;4592086;19;19970;-20
2022/05/06 07:16:20;;;;;;;;;;;14.50;99.90;;;;;;4592055;19;19991;-18
2022/05/06 07:17:51;;;;;;;;;;;14.50;99.90;;;;;;4592191;19;19919;-20
2022/05/06 07:19:22;;;;;;;;;;;14.50;99.90;;;;;;4592569;19;19932;-19
2022/05/06 07:20:54;;;;;;;;;;;14.50;99.90;;;;;;4592024;19;19914;-19
2022/05/06 07:22:25;;;;;;;;;;;14.40;99.90;;;;;;4592937;19;19918;-20
2022/05/06 07:23:56;;;;;;;;;;;14.50;99.90;;;;;;4592122;19;19923;-19
2022/05/06 07:25:27;;;;;;;;;;;14.40;99.90;;;;;;4592068;19;19985;-18
2022/05/06 07:26:58;;;;;;;;;;;14.50;99.90;;;;;;4592420;19;19922;-21
2022/05/06 07:28:29;;;;;;;;;;;14.40;99.90;;;;;;4590246;19;20246;-19
2022/05/06 07:30:00;;;;;;;;;;;14.50;99.90;;;;;;4590255;19;19931;-18
2022/05/06 07:31:31;;;;;;;;;;;14.40;99.90;;;;;;4591163;19;19915;-19
2022/05/06 07:33:02;;;;;;;;;;;14.50;99.90;;;;;;4591857;19;20336;-19
2022/05/06 07:34:33;;;;;;;;;;;14.40;99.90;;;;;;4592004;19;19926;-19
2022/05/06 07:36:04;;;;;;;;;;;14.40;99.90;;;;;;4591793;19;20284;-19
2022/05/06 07:37:35;;;;;;;;;;;14.40;99.90;;;;;;4591906;19;20222;-19
2022/05/06 07:39:06;;;;;;;;;;;14.40;99.90;;;;;;4592434;19;19926;-19
2022/05/06 07:40:37;;;;;;;;;;;14.40;99.90;;;;;;4589919;19;19919;-19
2022/05/06 07:42:10;;;;;;;;;;;14.40;99.90;;;;;;4591786;19;20317;-20
2022/05/06 07:43:41;;;;;;;;;;;14.40;99.90;;;;;;4592518;19;19937;-19
2022/05/06 07:45:12;;;;;;;;;;;14.40;99.90;;;;;;4596423;19;19931;-19
2022/05/06 07:46:43;;;;;;;;;;;14.40;99.90;;;;;;4595113;19;19987;-19
2022/05/06 07:48:14;;;;;;;;;;;14.40;99.90;;;;;;4593268;19;19938;-18
2022/05/06 07:49:45;;;;;;;;;;;14.40;99.90;;;;;;4593151;19;20257;-19
2022/05/06 07:51:16;;;;;;;;;;;14.40;99.90;;;;;;4593977;19;19925;-18
2022/05/06 07:52:49;;;;;;;;;;;14.40;99.90;;;;;;4594276;19;20248;-19
2022/05/06 07:54:22;;;;;;;;;;;14.40;99.90;;;;;;4594471;19;19911;-20
2022/05/06 07:55:53;;;;;;;;;;;14.40;99.90;;;;;;4594771;19;19915;-19
2022/05/06 07:57:24;;;;;;;;;;;14.40;99.90;;;;;;4594086;19;19930;-20
2022/05/06 07:58:55;;;;;;;;;;;14.40;99.90;;;;;;4596035;19;19923;-20
2022/05/06 08:00:26;;;;;;;;;;;14.40;99.90;;;;;;4594221;19;19923;-19
2022/05/06 08:05:39;;;;;;;;;;;14.50;99.90;;;;;;4595308;19;19994;-19
2022/05/06 08:07:10;;;;;;;;;;;14.50;99.90;;;;;;4594453;19;20328;-19
2022/05/06 08:08:41;;;;;;;;;;;14.50;99.90;;;;;;4596685;19;19915;-18
2022/05/06 08:10:13;;;;;;;;;;;14.50;99.90;;;;;;4596449;19;19919;-20
2022/05/06 08:11:46;;;;;;;;;;;14.50;99.90;;;;;;4593877;19;19966;-19
2022/05/06 08:13:17;;;;;;;;;;;14.50;99.90;;;;;;4594866;19;19932;-18
2022/05/06 08:14:48;;;;;;;;;;;14.50;99.90;;;;;;4594080;19;20336;-19
2022/05/06 08:16:20;;;;;;;;;;;14.50;99.90;;;;;;4593096;19;19911;-19
2022/05/06 08:17:51;;;;;;;;;;;14.50;99.90;;;;;;4593340;19;19921;-19
2022/05/06 08:19:22;;;;;;;;;;;14.40;99.90;;;;;;4593833;19;19914;-20
2022/05/06 08:20:53;;;;;;;;;;;14.40;99.90;;;;;;4594463;19;19911;-19
2022/05/06 08:22:25;;;;;;;;;;;14.50;99.90;;;;;;4593784;19;19941;-20
2022/05/06 08:23:56;;;;;;;;;;;14.50;99.90;;;;;;4593698;19;19918;-19
2022/05/06 08:25:27;;;;;;;;;;;14.50;99.90;;;;;;4594202;19;19951;-19
2022/05/06 08:26:58;;;;;;;;;;;14.50;99.90;;;;;;4592815;19;19925;-19
2022/05/06 08:28:29;;;;;;;;;;;14.50;99.90;;;;;;4593112;19;19911;-19
2022/05/06 08:30:00;;;;;;;;;;;14.50;99.90;;;;;;4591219;19;19917;-19
2022/05/06 08:31:32;;;;;;;;;;;14.50;99.40;;;;;;4591418;19;20242;-19
2022/05/06 08:33:03;;;;;;;;;;;14.50;99.20;;;;;;4591599;19;20342;-19